createdAt,value
2022-11-05T00:00:23.558Z,7.15
2022-11-05T00:05:25.615Z,7.2
2022-11-05T00:10:27.137Z,7.22
2022-11-05T00:15:29.191Z,7.25
2022-11-05T00:20:30.940Z,7.3
2022-11-05T00:25:32.228Z,7.33
2022-11-05T00:30:34.168Z,7.33
2022-11-05T00:35:35.434Z,7.37
2022-11-05T00:40:36.671Z,7.38
2022-11-05T00:45:38.843Z,7.36
2022-11-05T00:50:40.791Z,7.36
2022-11-05T00:55:42.219Z,7.39
2022-11-05T01:00:44.422Z,7.4
2022-11-05T01:05:45.659Z,7.4
2022-11-05T01:10:47.053Z,7.42
2022-11-05T01:15:48.646Z,7.44
2022-11-05T01:20:50.100Z,7.41
2022-11-05T01:25:51.285Z,7.42
2022-11-05T01:30:53.476Z,7.42
2022-11-05T01:35:54.848Z,7.36
2022-11-05T01:40:56.802Z,7.35
2022-11-05T01:45:58.043Z,7.32
2022-11-05T01:50:59.406Z,7.24
2022-11-05T01:56:01.221Z,7.2
2022-11-05T02:01:03.155Z,7.21
2022-11-05T02:06:05.079Z,7.16
2022-11-05T02:11:06.413Z,7.12
2022-11-05T02:16:08.014Z,7.1
2022-11-05T02:21:09.256Z,7.07
2022-11-05T02:26:10.698Z,7.01
2022-11-05T02:31:12.521Z,7.02
2022-11-05T02:41:16.564Z,7.01
2022-11-05T02:46:18.561Z,7.04
2022-11-05T03:16:28.490Z,7.13
2022-11-05T03:36:35.215Z,7.32
2022-11-05T03:41:37.034Z,7.38
2022-11-05T03:46:38.376Z,7.39
2022-11-05T03:56:41.530Z,7.46
2022-11-05T04:01:43.395Z,7.47
2022-11-05T04:06:45.120Z,7.46
2022-11-05T04:11:46.453Z,7.49
2022-11-05T04:16:48.408Z,7.55
2022-11-05T04:21:50.096Z,7.55
2022-11-05T04:26:51.650Z,7.59
2022-11-05T04:31:53.810Z,7.63
2022-11-05T04:36:55.040Z,7.59
2022-11-05T04:41:56.792Z,7.62
2022-11-05T04:46:58.500Z,7.65
2022-11-05T04:52:00.026Z,7.66
2022-11-05T04:57:01.271Z,7.64
2022-11-05T05:02:02.706Z,7.68
2022-11-05T05:07:03.946Z,7.68
2022-11-05T05:12:05.785Z,7.65
2022-11-05T05:17:07.936Z,7.68
2022-11-05T05:22:09.559Z,7.72
2022-11-05T05:27:10.843Z,7.7
2022-11-05T05:32:12.087Z,7.71
2022-11-05T05:37:13.572Z,7.75
2022-11-05T05:42:14.891Z,7.76
2022-11-05T05:47:16.550Z,7.77
2022-11-05T05:52:18.542Z,7.8
2022-11-05T05:57:20.498Z,7.82
2022-11-05T06:02:22.423Z,7.81
2022-11-05T06:07:23.791Z,7.83
2022-11-05T06:12:25.744Z,7.85
2022-11-05T06:17:27.484Z,7.81
2022-11-05T06:22:28.832Z,7.82
2022-11-05T06:27:30.792Z,7.85
2022-11-05T06:32:32.230Z,7.86
2022-11-05T06:37:34.204Z,7.87
2022-11-05T06:42:35.466Z,7.89
2022-11-05T06:47:36.771Z,7.93
2022-11-05T06:52:40.993Z,7.98
2022-11-05T06:57:39.975Z,8.05
2022-11-05T07:02:41.973Z,8.12
2022-11-05T07:07:43.613Z,8.16
2022-11-05T07:12:45.013Z,8.24
2022-11-05T07:17:46.543Z,8.33
2022-11-05T07:22:48.231Z,8.42
2022-11-05T07:27:49.564Z,8.5
2022-11-05T07:32:51.052Z,8.6
2022-11-05T07:37:52.560Z,8.72
2022-11-05T07:42:54.607Z,8.85
2022-11-05T07:47:56.779Z,9.1
2022-11-05T07:52:58.901Z,9.39
2022-11-05T07:58:00.751Z,9.49
2022-11-05T08:03:07.549Z,9.67
2022-11-05T08:08:04.177Z,9.85
2022-11-05T08:13:05.543Z,9.95
2022-11-05T08:18:07.184Z,10.13
2022-11-05T08:23:08.721Z,10.4
2022-11-05T08:28:10.238Z,10.55
2022-11-05T08:33:12.723Z,10.65
2022-11-05T08:38:13.974Z,10.75
2022-11-05T08:43:15.542Z,10.8
2022-11-05T08:48:17.069Z,10.81
2022-11-05T08:53:18.377Z,10.85
2022-11-05T08:58:19.713Z,10.89
2022-11-05T09:03:21.821Z,10.84
2022-11-05T09:08:23.458Z,10.84
2022-11-05T09:13:25.721Z,10.83
2022-11-05T09:18:27.543Z,10.79
2022-11-05T09:23:28.739Z,10.79
2022-11-05T09:28:30.433Z,10.83
2022-11-05T09:33:32.629Z,10.84
2022-11-05T09:38:33.993Z,10.85
2022-11-05T09:43:35.264Z,10.89
2022-11-05T09:48:36.775Z,10.94
2022-11-05T09:53:38.832Z,10.98
2022-11-05T09:58:40.228Z,11.02
2022-11-05T10:03:42.173Z,11.08
2022-11-05T10:08:44.105Z,11.11
2022-11-05T10:13:45.435Z,11.2
2022-11-05T10:18:46.656Z,11.28
2022-11-05T10:23:48.234Z,11.33
2022-11-05T10:28:49.514Z,11.36
2022-11-05T10:33:51.674Z,11.39
2022-11-05T10:38:53.682Z,11.41
2022-11-05T10:43:55.393Z,11.39
2022-11-05T10:48:57.075Z,11.44
2022-11-05T10:54:01.795Z,11.55
2022-11-05T10:59:00.240Z,11.59
2022-11-05T11:04:02.212Z,11.94
2022-11-05T11:09:03.372Z,12.04
2022-11-05T11:14:04.695Z,12.04
2022-11-05T11:19:06.741Z,12.04
2022-11-05T11:24:08.367Z,12.09
2022-11-05T11:29:09.913Z,12.12
2022-11-05T11:34:11.288Z,12.09
2022-11-05T11:39:12.921Z,12.08
2022-11-05T11:44:14.520Z,12.1
2022-11-05T11:49:15.736Z,12
2022-11-05T11:54:16.910Z,12.05
2022-11-05T11:59:18.104Z,12.12
2022-11-05T12:04:19.421Z,12.13
2022-11-05T12:09:20.876Z,12.12
2022-11-05T12:14:22.188Z,12.18
2022-11-05T12:19:24.119Z,12.29
2022-11-05T12:24:25.987Z,12.34
2022-11-05T12:29:30.145Z,12.35
2022-11-05T12:34:29.100Z,12.35
2022-11-05T12:39:30.974Z,12.28
2022-11-05T12:44:32.311Z,12.26
2022-11-05T12:49:34.057Z,12.21
2022-11-05T12:54:35.685Z,12.17
2022-11-05T12:59:37.325Z,12.15
2022-11-05T13:04:38.714Z,12.12
2022-11-05T13:09:40.225Z,12.09
2022-11-05T13:14:42.117Z,12
2022-11-05T13:19:44.098Z,12.01
2022-11-05T13:24:45.764Z,12.06
2022-11-05T13:29:47.355Z,12.01
2022-11-05T13:34:49.262Z,11.96
2022-11-05T13:39:50.709Z,11.93
2022-11-05T13:44:52.220Z,11.87
2022-11-05T13:49:54.412Z,11.77
2022-11-05T13:54:56.109Z,11.75
2022-11-05T13:59:58.136Z,11.77
2022-11-05T14:05:01.487Z,11.67
2022-11-05T14:10:01.988Z,11.65
2022-11-05T14:15:03.191Z,11.64
2022-11-05T14:20:05.192Z,11.63
2022-11-05T14:25:07.201Z,11.59
2022-11-05T14:30:08.527Z,11.59
2022-11-05T14:35:10.437Z,11.61
2022-11-05T14:40:12.332Z,11.59
2022-11-05T14:45:14.372Z,11.6
2022-11-05T14:50:16.568Z,11.59
2022-11-05T14:55:18.290Z,11.59
2022-11-05T15:00:19.613Z,11.57
2022-11-05T15:05:21.850Z,11.54
2022-11-05T15:10:22.970Z,11.45
2022-11-05T15:15:24.902Z,11.31
2022-11-05T15:20:26.917Z,11.27
2022-11-05T15:25:28.031Z,11.21
2022-11-05T15:30:29.314Z,11.07
2022-11-05T15:35:30.990Z,11.04
2022-11-05T15:40:38.647Z,10.99
2022-11-05T15:45:40.569Z,10.88
2022-11-05T15:50:42.663Z,10.8
2022-11-05T15:55:44.698Z,10.77
2022-11-05T16:00:46.489Z,10.67
2022-11-05T16:05:48.576Z,10.59
2022-11-05T16:10:50.501Z,10.57
2022-11-05T16:15:52.283Z,10.52
2022-11-05T16:20:53.953Z,10.45
2022-11-05T16:25:55.802Z,10.42
2022-11-05T16:30:57.096Z,10.39
2022-11-05T16:35:58.416Z,10.3
2022-11-05T16:41:00.250Z,10.24
2022-11-05T16:46:01.792Z,10.16
2022-11-05T16:51:03.621Z,10.03
2022-11-05T16:56:05.517Z,9.97
2022-11-05T17:01:07.217Z,9.93
2022-11-05T17:06:08.681Z,9.82
2022-11-05T17:11:10.659Z,9.75
2022-11-05T17:16:11.964Z,9.7
2022-11-05T17:31:16.525Z,9.57
2022-11-05T18:11:28.723Z,9.08
2022-11-05T18:21:32.181Z,9.01
2022-11-05T18:26:34.238Z,8.96
2022-11-05T18:31:35.712Z,8.91
2022-11-05T18:36:37.119Z,8.93
2022-11-05T18:41:38.439Z,8.92
2022-11-05T18:51:42.092Z,8.88
2022-11-05T19:01:44.753Z,8.82
2022-11-05T19:06:46.101Z,8.79
2022-11-05T19:11:48.220Z,8.78
2022-11-05T19:16:49.591Z,8.74
2022-11-05T19:21:51.273Z,8.67
2022-11-05T19:26:52.887Z,8.66
2022-11-05T19:31:54.258Z,8.6
2022-11-05T19:36:56.015Z,8.54
2022-11-05T19:42:03.088Z,8.51
2022-11-05T19:46:59.885Z,8.46
2022-11-05T19:52:01.422Z,8.38
2022-11-05T19:57:02.508Z,8.33
2022-11-05T20:02:04.715Z,8.27
2022-11-05T20:07:06.051Z,8.18
2022-11-05T20:12:07.957Z,8.1
2022-11-05T20:17:09.714Z,8.08
2022-11-05T20:22:11.872Z,8.02
2022-11-05T20:27:13.648Z,7.9
2022-11-05T20:32:15.414Z,7.86
2022-11-05T20:37:17.075Z,7.81
2022-11-05T20:42:18.799Z,7.71
2022-11-05T20:47:20.531Z,7.65
2022-11-05T20:52:21.783Z,7.6
2022-11-05T20:57:23.280Z,7.51
2022-11-05T21:02:24.937Z,7.41
2022-11-05T21:07:26.498Z,7.35
2022-11-05T21:12:28.530Z,7.27
2022-11-05T21:17:29.884Z,7.15
2022-11-05T21:22:31.997Z,7.14
2022-11-05T21:27:33.450Z,7.12
2022-11-05T21:32:35.073Z,7.04
2022-11-05T21:37:36.433Z,7.01
2022-11-05T21:42:38.391Z,6.95
2022-11-05T21:47:40.284Z,6.89
2022-11-05T21:52:41.821Z,6.78
2022-11-05T21:57:43.860Z,6.76
2022-11-05T22:02:46.068Z,6.71
2022-11-05T22:07:47.116Z,6.57
2022-11-05T22:12:49.039Z,6.55
2022-11-05T22:17:50.652Z,6.49
2022-11-05T22:22:52.350Z,6.39
2022-11-05T22:27:54.098Z,6.31
2022-11-05T22:32:56.218Z,6.25
2022-11-05T22:37:57.514Z,6.19
2022-11-05T22:42:59.141Z,6.12
2022-11-05T22:48:03.755Z,6.1
2022-11-05T22:53:02.602Z,6.1
2022-11-05T22:58:04.573Z,6.04
2022-11-05T23:13:09.947Z,6.05
2022-11-05T23:18:11.587Z,6
2022-11-05T23:23:12.704Z,6.01
2022-11-05T23:28:14.849Z,5.98
2022-11-05T23:33:15.849Z,5.92
2022-11-05T23:38:17.640Z,5.91
2022-11-05T23:43:19.592Z,5.9
2022-11-05T23:48:21.449Z,5.81
2022-11-05T23:53:22.646Z,5.76
2022-11-05T23:58:24.748Z,5.69
